sensor_id;sensor_type;location;lat;lon;timestamp;temperature;humidity
9482;DHT22;4779;48.062;11.672;2023-04-28T00:00:53;8.10;99.90
9482;DHT22;4779;48.062;11.672;2023-04-28T00:03:20;8.10;99.90
9482;DHT22;4779;48.062;11.672;2023-04-28T00:05:47;8.20;99.90
9482;DHT22;4779;48.062;11.672;2023-04-28T00:08:14;8.20;99.90
9482;DHT22;4779;48.062;11.672;2023-04-28T00:10:42;8.10;99.90
9482;DHT22;4779;48.062;11.672;2023-04-28T00:13:09;8.20;99.90
9482;DHT22;4779;48.062;11.672;2023-04-28T00:15:36;8.20;99.90
9482;DHT22;4779;48.062;11.672;2023-04-28T00:18:03;8.20;99.90
9482;DHT22;4779;48.062;11.672;2023-04-28T00:20:30;8.20;99.90
9482;DHT22;4779;48.062;11.672;2023-04-28T00:22:57;8.30;99.90
9482;DHT22;4779;48.062;11.672;2023-04-28T00:25:24;8.30;99.90
9482;DHT22;4779;48.062;11.672;2023-04-28T00:27:52;8.20;99.90
9482;DHT22;4779;48.062;11.672;2023-04-28T00:30:19;8.30;99.90
9482;DHT22;4779;48.062;11.672;2023-04-28T00:32:46;8.30;99.90
9482;DHT22;4779;48.062;11.672;2023-04-28T00:35:13;8.30;99.90
9482;DHT22;4779;48.062;11.672;2023-04-28T00:37:40;8.30;99.90
9482;DHT22;4779;48.062;11.672;2023-04-28T00:40:08;8.30;99.90
9482;DHT22;4779;48.062;11.672;2023-04-28T00:42:35;8.30;99.90
9482;DHT22;4779;48.062;11.672;2023-04-28T00:45:04;8.30;99.90
9482;DHT22;4779;48.062;11.672;2023-04-28T00:47:32;8.30;99.90
9482;DHT22;4779;48.062;11.672;2023-04-28T00:49:59;8.10;99.90
9482;DHT22;4779;48.062;11.672;2023-04-28T00:52:27;8.10;99.90
9482;DHT22;4779;48.062;11.672;2023-04-28T00:54:54;8.20;99.90
9482;DHT22;4779;48.062;11.672;2023-04-28T00:57:21;8.20;99.90
9482;DHT22;4779;48.062;11.672;2023-04-28T00:59:48;8.20;99.90
9482;DHT22;4779;48.062;11.672;2023-04-28T01:02:16;8.20;99.90
9482;DHT22;4779;48.062;11.672;2023-04-28T01:04:44;8.20;99.90
9482;DHT22;4779;48.062;11.672;2023-04-28T01:07:11;8.20;99.90
9482;DHT22;4779;48.062;11.672;2023-04-28T01:09:38;8.20;99.90
9482;DHT22;4779;48.062;11.672;2023-04-28T01:12:05;8.30;99.90
9482;DHT22;4779;48.062;11.672;2023-04-28T01:14:32;8.30;99.90
9482;DHT22;4779;48.062;11.672;2023-04-28T01:17:00;8.30;99.90
9482;DHT22;4779;48.062;11.672;2023-04-28T01:19:28;8.30;99.90
9482;DHT22;4779;48.062;11.672;2023-04-28T01:21:55;8.30;99.90
9482;DHT22;4779;48.062;11.672;2023-04-28T01:24:23;8.30;99.90
9482;DHT22;4779;48.062;11.672;2023-04-28T01:26:50;8.30;99.90
9482;DHT22;4779;48.062;11.672;2023-04-28T01:29:17;8.30;99.90
9482;DHT22;4779;48.062;11.672;2023-04-28T01:31:44;8.40;99.90
9482;DHT22;4779;48.062;11.672;2023-04-28T01:34:11;8.30;99.90
9482;DHT22;4779;48.062;11.672;2023-04-28T01:36:38;8.30;99.90
9482;DHT22;4779;48.062;11.672;2023-04-28T01:39:05;8.30;99.90
9482;DHT22;4779;48.062;11.672;2023-04-28T01:41:34;8.30;99.90
9482;DHT22;4779;48.062;11.672;2023-04-28T01:44:00;8.40;99.90
9482;DHT22;4779;48.062;11.672;2023-04-28T01:46:28;8.40;99.90
9482;DHT22;4779;48.062;11.672;2023-04-28T01:48:55;8.40;99.90
9482;DHT22;4779;48.062;11.672;2023-04-28T01:51:22;8.40;99.90
9482;DHT22;4779;48.062;11.672;2023-04-28T01:53:49;8.40;99.90
9482;DHT22;4779;48.062;11.672;2023-04-28T01:56:15;8.40;99.90
9482;DHT22;4779;48.062;11.672;2023-04-28T01:58:44;8.40;99.90
9482;DHT22;4779;48.062;11.672;2023-04-28T02:01:11;8.40;99.90
9482;DHT22;4779;48.062;11.672;2023-04-28T02:03:38;8.40;99.90
9482;DHT22;4779;48.062;11.672;2023-04-28T02:06:05;8.40;99.90
9482;DHT22;4779;48.062;11.672;2023-04-28T02:08:31;8.40;99.90
9482;DHT22;4779;48.062;11.672;2023-04-28T02:10:58;8.40;99.90
9482;DHT22;4779;48.062;11.672;2023-04-28T02:13:26;8.40;99.90
9482;DHT22;4779;48.062;11.672;2023-04-28T02:15:54;8.40;99.90
9482;DHT22;4779;48.062;11.672;2023-04-28T02:18:21;8.50;99.90
9482;DHT22;4779;48.062;11.672;2023-04-28T02:20:48;8.40;99.90
9482;DHT22;4779;48.062;11.672;2023-04-28T02:23:15;8.50;99.90
9482;DHT22;4779;48.062;11.672;2023-04-28T02:25:41;8.50;99.90
9482;DHT22;4779;48.062;11.672;2023-04-28T02:28:08;8.50;99.90
9482;DHT22;4779;48.062;11.672;2023-04-28T02:30:35;8.50;99.90
9482;DHT22;4779;48.062;11.672;2023-04-28T02:33:03;8.50;99.90
9482;DHT22;4779;48.062;11.672;2023-04-28T02:35:30;8.40;99.90
9482;DHT22;4779;48.062;11.672;2023-04-28T02:37:57;8.40;99.90
9482;DHT22;4779;48.062;11.672;2023-04-28T02:40:24;8.30;99.90
9482;DHT22;4779;48.062;11.672;2023-04-28T02:42:51;8.40;99.90
9482;DHT22;4779;48.062;11.672;2023-04-28T02:45:18;8.40;99.90
9482;DHT22;4779;48.062;11.672;2023-04-28T02:47:45;8.50;99.90
9482;DHT22;4779;48.062;11.672;2023-04-28T02:50:13;8.50;99.90
9482;DHT22;4779;48.062;11.672;2023-04-28T02:52:40;8.50;99.90
9482;DHT22;4779;48.062;11.672;2023-04-28T02:55:07;8.50;99.90
9482;DHT22;4779;48.062;11.672;2023-04-28T02:57:34;8.40;99.90
9482;DHT22;4779;48.062;11.672;2023-04-28T03:00:01;8.40;99.90
9482;DHT22;4779;48.062;11.672;2023-04-28T03:02:29;8.50;99.90
9482;DHT22;4779;48.062;11.672;2023-04-28T03:04:56;8.40;99.90
9482;DHT22;4779;48.062;11.672;2023-04-28T03:07:25;8.40;99.90
9482;DHT22;4779;48.062;11.672;2023-04-28T03:09:51;8.40;99.90
9482;DHT22;4779;48.062;11.672;2023-04-28T03:12:18;8.50;99.90
9482;DHT22;4779;48.062;11.672;2023-04-28T03:14:45;8.50;99.90
9482;DHT22;4779;48.062;11.672;2023-04-28T03:17:12;8.40;99.90
9482;DHT22;4779;48.062;11.672;2023-04-28T03:19:39;8.40;99.90
9482;DHT22;4779;48.062;11.672;2023-04-28T03:22:06;8.40;99.90
9482;DHT22;4779;48.062;11.672;2023-04-28T03:24:34;8.30;99.90
9482;DHT22;4779;48.062;11.672;2023-04-28T03:27:01;8.30;99.90
9482;DHT22;4779;48.062;11.672;2023-04-28T03:29:28;8.30;99.90
9482;DHT22;4779;48.062;11.672;2023-04-28T03:31:55;8.40;99.90
9482;DHT22;4779;48.062;11.672;2023-04-28T03:34:22;8.40;99.90
9482;DHT22;4779;48.062;11.672;2023-04-28T03:36:49;8.40;99.90
9482;DHT22;4779;48.062;11.672;2023-04-28T03:39:16;8.40;99.90
9482;DHT22;4779;48.062;11.672;2023-04-28T03:41:44;8.40;99.90
9482;DHT22;4779;48.062;11.672;2023-04-28T03:44:11;8.50;99.90
9482;DHT22;4779;48.062;11.672;2023-04-28T03:46:38;8.50;99.90
9482;DHT22;4779;48.062;11.672;2023-04-28T03:49:05;8.50;99.90
9482;DHT22;4779;48.062;11.672;2023-04-28T03:51:32;8.60;99.90
9482;DHT22;4779;48.062;11.672;2023-04-28T03:53:59;8.60;99.90
9482;DHT22;4779;48.062;11.672;2023-04-28T03:56:25;8.60;99.90
9482;DHT22;4779;48.062;11.672;2023-04-28T03:58:54;8.60;99.90
9482;DHT22;4779;48.062;11.672;2023-04-28T04:01:21;8.60;99.90
9482;DHT22;4779;48.062;11.672;2023-04-28T04:03:47;8.60;99.90
9482;DHT22;4779;48.062;11.672;2023-04-28T04:06:14;8.50;99.90
9482;DHT22;4779;48.062;11.672;2023-04-28T04:08:41;8.60;99.90
9482;DHT22;4779;48.062;11.672;2023-04-28T04:11:08;8.60;99.90
9482;DHT22;4779;48.062;11.672;2023-04-28T04:13:35;8.70;99.90
9482;DHT22;4779;48.062;11.672;2023-04-28T04:16:04;8.70;99.90
9482;DHT22;4779;48.062;11.672;2023-04-28T04:18:31;8.70;99.90
9482;DHT22;4779;48.062;11.672;2023-04-28T04:20:58;8.70;99.90
9482;DHT22;4779;48.062;11.672;2023-04-28T04:23:25;8.80;99.90
9482;DHT22;4779;48.062;11.672;2023-04-28T04:25:52;8.80;99.90
9482;DHT22;4779;48.062;11.672;2023-04-28T04:28:19;8.80;99.90
9482;DHT22;4779;48.062;11.672;2023-04-28T04:30:46;8.80;99.90
9482;DHT22;4779;48.062;11.672;2023-04-28T04:33:14;8.80;99.90
9482;DHT22;4779;48.062;11.672;2023-04-28T04:35:41;8.80;99.90
9482;DHT22;4779;48.062;11.672;2023-04-28T04:38:08;8.70;99.90
9482;DHT22;4779;48.062;11.672;2023-04-28T04:40:35;8.70;99.90
9482;DHT22;4779;48.062;11.672;2023-04-28T04:43:02;8.60;99.90
9482;DHT22;4779;48.062;11.672;2023-04-28T04:45:29;8.60;99.90
9482;DHT22;4779;48.062;11.672;2023-04-28T04:47:56;8.50;99.90
9482;DHT22;4779;48.062;11.672;2023-04-28T04:50:24;8.50;99.90
9482;DHT22;4779;48.062;11.672;2023-04-28T04:52:51;8.50;99.90
9482;DHT22;4779;48.062;11.672;2023-04-28T04:55:19;8.50;99.90
9482;DHT22;4779;48.062;11.672;2023-04-28T04:57:46;8.60;99.90
9482;DHT22;4779;48.062;11.672;2023-04-28T05:00:13;8.60;99.90
9482;DHT22;4779;48.062;11.672;2023-04-28T05:02:41;8.70;99.90
9482;DHT22;4779;48.062;11.672;2023-04-28T05:05:08;8.70;99.90
9482;DHT22;4779;48.062;11.672;2023-04-28T05:07:36;8.60;99.90
9482;DHT22;4779;48.062;11.672;2023-04-28T05:10:04;8.70;99.90
9482;DHT22;4779;48.062;11.672;2023-04-28T05:12:31;8.70;99.90
9482;DHT22;4779;48.062;11.672;2023-04-28T05:14:58;8.70;99.90
9482;DHT22;4779;48.062;11.672;2023-04-28T05:17:25;8.70;99.90
9482;DHT22;4779;48.062;11.672;2023-04-28T05:19:52;8.70;99.90
9482;DHT22;4779;48.062;11.672;2023-04-28T05:22:19;8.70;99.90
9482;DHT22;4779;48.062;11.672;2023-04-28T05:24:47;8.80;99.90
9482;DHT22;4779;48.062;11.672;2023-04-28T05:27:14;8.90;99.90
9482;DHT22;4779;48.062;11.672;2023-04-28T05:29:41;8.90;99.90
9482;DHT22;4779;48.062;11.672;2023-04-28T05:32:08;8.90;99.90
9482;DHT22;4779;48.062;11.672;2023-04-28T05:34:35;8.90;99.90
9482;DHT22;4779;48.062;11.672;2023-04-28T05:37:02;9.00;99.90
9482;DHT22;4779;48.062;11.672;2023-04-28T05:39:29;9.00;99.90
9482;DHT22;4779;48.062;11.672;2023-04-28T05:41:57;9.10;99.90
9482;DHT22;4779;48.062;11.672;2023-04-28T05:44:24;9.10;99.90
9482;DHT22;4779;48.062;11.672;2023-04-28T05:46:51;9.10;99.90
9482;DHT22;4779;48.062;11.672;2023-04-28T05:49:18;9.10;99.90
9482;DHT22;4779;48.062;11.672;2023-04-28T05:51:45;9.10;99.90
9482;DHT22;4779;48.062;11.672;2023-04-28T05:54:12;9.10;99.90
9482;DHT22;4779;48.062;11.672;2023-04-28T05:56:39;9.20;99.90
9482;DHT22;4779;48.062;11.672;2023-04-28T05:59:07;9.20;99.90
9482;DHT22;4779;48.062;11.672;2023-04-28T06:01:34;9.10;99.90
9482;DHT22;4779;48.062;11.672;2023-04-28T06:04:03;9.10;99.90
9482;DHT22;4779;48.062;11.672;2023-04-28T06:06:30;9.10;99.90
9482;DHT22;4779;48.062;11.672;2023-04-28T06:08:58;9.10;99.90
9482;DHT22;4779;48.062;11.672;2023-04-28T06:11:25;9.00;99.90
9482;DHT22;4779;48.062;11.672;2023-04-28T06:13:52;9.10;99.90
9482;DHT22;4779;48.062;11.672;2023-04-28T06:16:20;9.00;99.90
9482;DHT22;4779;48.062;11.672;2023-04-28T06:18:48;9.00;99.90
9482;DHT22;4779;48.062;11.672;2023-04-28T06:21:15;9.10;99.90
9482;DHT22;4779;48.062;11.672;2023-04-28T06:23:42;9.10;99.90
9482;DHT22;4779;48.062;11.672;2023-04-28T06:26:09;9.10;99.90
9482;DHT22;4779;48.062;11.672;2023-04-28T06:28:35;9.20;99.90
9482;DHT22;4779;48.062;11.672;2023-04-28T06:31:02;9.30;99.90
9482;DHT22;4779;48.062;11.672;2023-04-28T06:33:31;9.30;99.90
9482;DHT22;4779;48.062;11.672;2023-04-28T06:35:57;9.30;99.90
9482;DHT22;4779;48.062;11.672;2023-04-28T06:38:24;9.40;99.90
9482;DHT22;4779;48.062;11.672;2023-04-28T06:40:51;9.50;99.90
9482;DHT22;4779;48.062;11.672;2023-04-28T06:43:19;9.50;99.90
9482;DHT22;4779;48.062;11.672;2023-04-28T06:45:45;9.60;99.90
9482;DHT22;4779;48.062;11.672;2023-04-28T06:48:12;9.70;99.90
9482;DHT22;4779;48.062;11.672;2023-04-28T06:50:41;9.70;99.90
9482;DHT22;4779;48.062;11.672;2023-04-28T06:53:08;9.70;99.90
9482;DHT22;4779;48.062;11.672;2023-04-28T06:55:34;9.80;99.90
9482;DHT22;4779;48.062;11.672;2023-04-28T06:58:01;10.00;99.90
9482;DHT22;4779;48.062;11.672;2023-04-28T07:00:28;10.00;99.90
9482;DHT22;4779;48.062;11.672;2023-04-28T07:02:55;10.10;99.90
9482;DHT22;4779;48.062;11.672;2023-04-28T07:05:22;10.20;99.90
9482;DHT22;4779;48.062;11.672;2023-04-28T07:07:51;10.20;99.90
9482;DHT22;4779;48.062;11.672;2023-04-28T07:10:18;10.30;99.90
9482;DHT22;4779;48.062;11.672;2023-04-28T07:12:46;10.40;99.90
9482;DHT22;4779;48.062;11.672;2023-04-28T07:15:13;10.50;99.90
9482;DHT22;4779;48.062;11.672;2023-04-28T07:17:40;10.60;99.90
9482;DHT22;4779;48.062;11.672;2023-04-28T07:20:08;10.70;99.90
9482;DHT22;4779;48.062;11.672;2023-04-28T07:22:35;10.80;99.90
9482;DHT22;4779;48.062;11.672;2023-04-28T07:25:04;10.80;99.90
9482;DHT22;4779;48.062;11.672;2023-04-28T07:27:31;10.80;99.90
9482;DHT22;4779;48.062;11.672;2023-04-28T07:29:58;10.80;99.90
9482;DHT22;4779;48.062;11.672;2023-04-28T07:32:25;10.80;99.90
9482;DHT22;4779;48.062;11.672;2023-04-28T07:34:52;10.80;99.90
9482;DHT22;4779;48.062;11.672;2023-04-28T07:37:19;10.80;99.90
9482;DHT22;4779;48.062;11.672;2023-04-28T07:39:46;10.80;99.90
9482;DHT22;4779;48.062;11.672;2023-04-28T07:42:14;10.70;99.90
9482;DHT22;4779;48.062;11.672;2023-04-28T07:44:41;10.80;99.90
9482;DHT22;4779;48.062;11.672;2023-04-28T07:47:08;10.80;99.90
9482;DHT22;4779;48.062;11.672;2023-04-28T07:49:35;10.80;99.90
9482;DHT22;4779;48.062;11.672;2023-04-28T07:52:02;10.80;99.90
9482;DHT22;4779;48.062;11.672;2023-04-28T07:54:29;10.80;99.90
9482;DHT22;4779;48.062;11.672;2023-04-28T07:56:56;10.80;99.90
9482;DHT22;4779;48.062;11.672;2023-04-28T07:59:25;10.90;99.90
9482;DHT22;4779;48.062;11.672;2023-04-28T08:01:52;10.90;99.90
9482;DHT22;4779;48.062;11.672;2023-04-28T08:04:18;10.90;99.90
9482;DHT22;4779;48.062;11.672;2023-04-28T08:06:45;11.00;99.90
9482;DHT22;4779;48.062;11.672;2023-04-28T08:09:12;11.00;99.90
9482;DHT22;4779;48.062;11.672;2023-04-28T08:11:39;11.00;99.90
9482;DHT22;4779;48.062;11.672;2023-04-28T08:14:06;11.10;99.90
9482;DHT22;4779;48.062;11.672;2023-04-28T08:16:34;11.10;99.90
9482;DHT22;4779;48.062;11.672;2023-04-28T08:19:04;11.10;99.90
9482;DHT22;4779;48.062;11.672;2023-04-28T08:21:31;11.10;99.90
9482;DHT22;4779;48.062;11.672;2023-04-28T08:23:58;11.10;99.90
9482;DHT22;4779;48.062;11.672;2023-04-28T08:26:26;11.10;99.90
9482;DHT22;4779;48.062;11.672;2023-04-28T08:28:53;11.10;99.90
9482;DHT22;4779;48.062;11.672;2023-04-28T08:31:20;11.10;99.90
9482;DHT22;4779;48.062;11.672;2023-04-28T08:33:48;11.10;99.90
9482;DHT22;4779;48.062;11.672;2023-04-28T08:36:16;11.00;99.90
9482;DHT22;4779;48.062;11.672;2023-04-28T08:38:43;11.00;99.90
9482;DHT22;4779;48.062;11.672;2023-04-28T08:41:11;11.00;99.90
9482;DHT22;4779;48.062;11.672;2023-04-28T08:43:39;10.90;99.90
9482;DHT22;4779;48.062;11.672;2023-04-28T08:46:08;10.90;99.90
9482;DHT22;4779;48.062;11.672;2023-04-28T08:48:40;11.00;99.90
9482;DHT22;4779;48.062;11.672;2023-04-28T08:51:09;11.00;99.90
9482;DHT22;4779;48.062;11.672;2023-04-28T08:53:40;11.00;99.90
9482;DHT22;4779;48.062;11.672;2023-04-28T08:56:09;11.00;99.90
9482;DHT22;4779;48.062;11.672;2023-04-28T08:58:38;11.10;99.90
9482;DHT22;4779;48.062;11.672;2023-04-28T09:01:05;11.10;99.90
9482;DHT22;4779;48.062;11.672;2023-04-28T09:03:32;11.10;99.90
9482;DHT22;4779;48.062;11.672;2023-04-28T09:06:00;11.10;99.90
9482;DHT22;4779;48.062;11.672;2023-04-28T09:08:29;11.10;99.90
9482;DHT22;4779;48.062;11.672;2023-04-28T09:11:06;11.10;99.90
9482;DHT22;4779;48.062;11.672;2023-04-28T09:13:34;11.20;99.90
9482;DHT22;4779;48.062;11.672;2023-04-28T09:16:01;11.10;99.90
9482;DHT22;4779;48.062;11.672;2023-04-28T09:18:29;11.20;99.90
9482;DHT22;4779;48.062;11.672;2023-04-28T09:21:05;11.30;99.90
9482;DHT22;4779;48.062;11.672;2023-04-28T09:23:33;11.30;99.90
9482;DHT22;4779;48.062;11.672;2023-04-28T09:26:02;11.30;99.90
9482;DHT22;4779;48.062;11.672;2023-04-28T09:28:29;11.30;99.90
9482;DHT22;4779;48.062;11.672;2023-04-28T09:30:56;11.30;99.90
9482;DHT22;4779;48.062;11.672;2023-04-28T09:33:23;11.30;99.90
9482;DHT22;4779;48.062;11.672;2023-04-28T09:35:50;11.20;99.90
9482;DHT22;4779;48.062;11.672;2023-04-28T09:38:18;11.20;99.90
9482;DHT22;4779;48.062;11.672;2023-04-28T09:40:51;11.20;99.90
9482;DHT22;4779;48.062;11.672;2023-04-28T09:43:26;11.10;99.90
9482;DHT22;4779;48.062;11.672;2023-04-28T09:45:53;11.10;99.90
9482;DHT22;4779;48.062;11.672;2023-04-28T09:48:31;11.10;99.90
9482;DHT22;4779;48.062;11.672;2023-04-28T09:50:59;11.10;99.90
9482;DHT22;4779;48.062;11.672;2023-04-28T09:53:27;11.10;99.90
9482;DHT22;4779;48.062;11.672;2023-04-28T09:55:57;11.10;99.90
9482;DHT22;4779;48.062;11.672;2023-04-28T09:58:25;11.10;99.90
9482;DHT22;4779;48.062;11.672;2023-04-28T10:00:54;11.00;99.90
9482;DHT22;4779;48.062;11.672;2023-04-28T10:03:21;11.00;99.90
9482;DHT22;4779;48.062;11.672;2023-04-28T10:05:50;11.00;99.90
9482;DHT22;4779;48.062;11.672;2023-04-28T10:08:19;11.00;99.90
9482;DHT22;4779;48.062;11.672;2023-04-28T10:10:47;11.00;99.90
9482;DHT22;4779;48.062;11.672;2023-04-28T10:13:16;11.00;99.90
9482;DHT22;4779;48.062;11.672;2023-04-28T10:15:44;11.00;99.90
9482;DHT22;4779;48.062;11.672;2023-04-28T10:18:11;11.00;99.90
9482;DHT22;4779;48.062;11.672;2023-04-28T10:20:39;11.10;99.90
9482;DHT22;4779;48.062;11.672;2023-04-28T10:23:30;11.10;99.90
9482;DHT22;4779;48.062;11.672;2023-04-28T10:26:02;11.20;99.90
9482;DHT22;4779;48.062;11.672;2023-04-28T10:28:30;11.10;99.90
9482;DHT22;4779;48.062;11.672;2023-04-28T10:31:10;11.00;99.90
9482;DHT22;4779;48.062;11.672;2023-04-28T10:33:37;11.00;99.90
9482;DHT22;4779;48.062;11.672;2023-04-28T10:36:05;11.00;99.90
9482;DHT22;4779;48.062;11.672;2023-04-28T10:38:32;11.00;99.90
9482;DHT22;4779;48.062;11.672;2023-04-28T10:41:00;11.00;99.90
9482;DHT22;4779;48.062;11.672;2023-04-28T10:43:35;11.00;99.90
9482;DHT22;4779;48.062;11.672;2023-04-28T10:46:05;11.00;99.90
9482;DHT22;4779;48.062;11.672;2023-04-28T10:48:54;10.90;99.90
9482;DHT22;4779;48.062;11.672;2023-04-28T10:51:28;10.90;99.90
9482;DHT22;4779;48.062;11.672;2023-04-28T10:54:23;10.90;99.90
9482;DHT22;4779;48.062;11.672;2023-04-28T10:57:17;10.90;99.90
9482;DHT22;4779;48.062;11.672;2023-04-28T10:59:46;11.00;99.90
9482;DHT22;4779;48.062;11.672;2023-04-28T11:05:18;11.10;99.90
9482;DHT22;4779;48.062;11.672;2023-04-28T11:11:21;11.10;99.90
9482;DHT22;4779;48.062;11.672;2023-04-28T11:13:49;11.10;99.90
9482;DHT22;4779;48.062;11.672;2023-04-28T11:16:19;11.20;99.90
9482;DHT22;4779;48.062;11.672;2023-04-28T11:19:00;11.20;99.90
9482;DHT22;4779;48.062;11.672;2023-04-28T11:21:30;11.20;99.90
9482;DHT22;4779;48.062;11.672;2023-04-28T11:23:58;11.20;99.90
9482;DHT22;4779;48.062;11.672;2023-04-28T11:26:26;11.20;99.90
9482;DHT22;4779;48.062;11.672;2023-04-28T11:28:55;11.20;99.90
9482;DHT22;4779;48.062;11.672;2023-04-28T11:31:24;11.10;99.90
9482;DHT22;4779;48.062;11.672;2023-04-28T11:34:03;11.10;99.90
9482;DHT22;4779;48.062;11.672;2023-04-28T11:36:32;11.00;99.90
9482;DHT22;4779;48.062;11.672;2023-04-28T11:39:00;11.10;99.90
9482;DHT22;4779;48.062;11.672;2023-04-28T11:41:30;11.10;99.90
9482;DHT22;4779;48.062;11.672;2023-04-28T11:43:57;11.10;99.90
9482;DHT22;4779;48.062;11.672;2023-04-28T11:46:25;11.20;99.90
9482;DHT22;4779;48.062;11.672;2023-04-28T11:49:00;11.30;99.90
9482;DHT22;4779;48.062;11.672;2023-04-28T11:51:35;11.40;99.90
9482;DHT22;4779;48.062;11.672;2023-04-28T11:54:03;11.50;99.90
9482;DHT22;4779;48.062;11.672;2023-04-28T11:56:36;11.60;99.90
9482;DHT22;4779;48.062;11.672;2023-04-28T11:59:05;11.80;99.90
9482;DHT22;4779;48.062;11.672;2023-04-28T12:01:43;11.90;99.90
9482;DHT22;4779;48.062;11.672;2023-04-28T12:04:10;12.00;99.90
9482;DHT22;4779;48.062;11.672;2023-04-28T12:06:38;12.10;99.90
9482;DHT22;4779;48.062;11.672;2023-04-28T12:09:16;12.20;99.90
9482;DHT22;4779;48.062;11.672;2023-04-28T12:11:54;12.20;99.90
9482;DHT22;4779;48.062;11.672;2023-04-28T12:14:24;12.20;99.90
9482;DHT22;4779;48.062;11.672;2023-04-28T12:16:53;12.20;99.90
9482;DHT22;4779;48.062;11.672;2023-04-28T12:19:21;12.20;99.90
9482;DHT22;4779;48.062;11.672;2023-04-28T12:22:02;12.20;99.90
9482;DHT22;4779;48.062;11.672;2023-04-28T12:24:29;12.30;99.90
9482;DHT22;4779;48.062;11.672;2023-04-28T12:27:15;12.30;99.90
9482;DHT22;4779;48.062;11.672;2023-04-28T12:29:43;12.40;99.90
9482;DHT22;4779;48.062;11.672;2023-04-28T12:32:12;12.40;99.90
9482;DHT22;4779;48.062;11.672;2023-04-28T12:34:40;12.40;99.90
9482;DHT22;4779;48.062;11.672;2023-04-28T12:37:08;12.30;99.90
9482;DHT22;4779;48.062;11.672;2023-04-28T12:39:35;12.30;99.90
9482;DHT22;4779;48.062;11.672;2023-04-28T12:42:03;12.20;99.90
9482;DHT22;4779;48.062;11.672;2023-04-28T12:44:34;12.20;99.90
9482;DHT22;4779;48.062;11.672;2023-04-28T12:47:03;12.20;99.90
9482;DHT22;4779;48.062;11.672;2023-04-28T12:49:33;12.20;99.90
9482;DHT22;4779;48.062;11.672;2023-04-28T12:52:00;12.20;99.90
9482;DHT22;4779;48.062;11.672;2023-04-28T12:54:27;12.30;99.90
9482;DHT22;4779;48.062;11.672;2023-04-28T12:56:54;12.30;99.90
9482;DHT22;4779;48.062;11.672;2023-04-28T12:59:22;12.30;99.90
9482;DHT22;4779;48.062;11.672;2023-04-28T13:01:49;12.30;99.90
9482;DHT22;4779;48.062;11.672;2023-04-28T13:04:16;12.40;99.90
9482;DHT22;4779;48.062;11.672;2023-04-28T13:06:45;12.40;99.90
9482;DHT22;4779;48.062;11.672;2023-04-28T13:09:12;12.40;99.90
9482;DHT22;4779;48.062;11.672;2023-04-28T13:11:40;12.40;99.90
9482;DHT22;4779;48.062;11.672;2023-04-28T13:14:08;12.40;99.90
9482;DHT22;4779;48.062;11.672;2023-04-28T13:16:35;12.40;99.90
9482;DHT22;4779;48.062;11.672;2023-04-28T13:19:03;12.50;99.90
9482;DHT22;4779;48.062;11.672;2023-04-28T13:21:34;12.50;99.90
9482;DHT22;4779;48.062;11.672;2023-04-28T13:24:03;12.60;99.90
9482;DHT22;4779;48.062;11.672;2023-04-28T13:26:31;12.70;99.90
9482;DHT22;4779;48.062;11.672;2023-04-28T13:28:58;12.80;99.90
9482;DHT22;4779;48.062;11.672;2023-04-28T13:31:26;13.00;99.90
9482;DHT22;4779;48.062;11.672;2023-04-28T13:33:54;13.30;99.90
9482;DHT22;4779;48.062;11.672;2023-04-28T13:36:21;13.40;99.90
9482;DHT22;4779;48.062;11.672;2023-04-28T13:38:48;13.40;99.90
9482;DHT22;4779;48.062;11.672;2023-04-28T13:41:17;13.40;99.90
9482;DHT22;4779;48.062;11.672;2023-04-28T13:43:44;13.30;99.90
9482;DHT22;4779;48.062;11.672;2023-04-28T13:46:11;13.30;99.90
9482;DHT22;4779;48.062;11.672;2023-04-28T13:48:38;13.30;99.90
9482;DHT22;4779;48.062;11.672;2023-04-28T13:51:06;13.40;99.90
9482;DHT22;4779;48.062;11.672;2023-04-28T13:53:35;13.50;99.90
9482;DHT22;4779;48.062;11.672;2023-04-28T13:56:03;13.50;99.90
9482;DHT22;4779;48.062;11.672;2023-04-28T13:58:32;13.60;99.90
9482;DHT22;4779;48.062;11.672;2023-04-28T14:00:59;13.50;99.90
9482;DHT22;4779;48.062;11.672;2023-04-28T14:03:28;13.60;99.90
9482;DHT22;4779;48.062;11.672;2023-04-28T14:05:57;13.60;99.90
9482;DHT22;4779;48.062;11.672;2023-04-28T14:08:24;13.70;99.90
9482;DHT22;4779;48.062;11.672;2023-04-28T14:10:51;13.80;99.90
9482;DHT22;4779;48.062;11.672;2023-04-28T14:13:18;14.00;99.90
9482;DHT22;4779;48.062;11.672;2023-04-28T14:15:46;14.10;99.90
9482;DHT22;4779;48.062;11.672;2023-04-28T14:18:13;14.20;99.90
9482;DHT22;4779;48.062;11.672;2023-04-28T14:20:40;14.10;99.90
9482;DHT22;4779;48.062;11.672;2023-04-28T14:23:08;14.00;99.90
9482;DHT22;4779;48.062;11.672;2023-04-28T14:25:35;14.10;99.90
9482;DHT22;4779;48.062;11.672;2023-04-28T14:28:03;14.00;99.90
9482;DHT22;4779;48.062;11.672;2023-04-28T14:30:30;14.00;99.90
9482;DHT22;4779;48.062;11.672;2023-04-28T14:32:58;14.00;99.90
9482;DHT22;4779;48.062;11.672;2023-04-28T14:35:26;14.00;99.90
9482;DHT22;4779;48.062;11.672;2023-04-28T14:37:54;13.90;99.90
9482;DHT22;4779;48.062;11.672;2023-04-28T14:40:22;13.80;99.90
9482;DHT22;4779;48.062;11.672;2023-04-28T14:42:49;13.80;99.90
9482;DHT22;4779;48.062;11.672;2023-04-28T14:45:17;13.80;99.90
9482;DHT22;4779;48.062;11.672;2023-04-28T14:47:44;13.80;99.90
9482;DHT22;4779;48.062;11.672;2023-04-28T14:50:13;13.80;99.90
9482;DHT22;4779;48.062;11.672;2023-04-28T14:52:40;13.70;99.90
9482;DHT22;4779;48.062;11.672;2023-04-28T14:55:07;13.70;99.90
9482;DHT22;4779;48.062;11.672;2023-04-28T14:57:35;13.70;99.90
9482;DHT22;4779;48.062;11.672;2023-04-28T15:00:02;13.70;99.90
9482;DHT22;4779;48.062;11.672;2023-04-28T15:02:31;13.70;99.90
9482;DHT22;4779;48.062;11.672;2023-04-28T15:04:58;13.70;99.90
9482;DHT22;4779;48.062;11.672;2023-04-28T15:07:27;13.80;99.90
9482;DHT22;4779;48.062;11.672;2023-04-28T15:09:56;13.70;99.90
9482;DHT22;4779;48.062;11.672;2023-04-28T15:12:23;13.60;99.90
9482;DHT22;4779;48.062;11.672;2023-04-28T15:14:50;13.60;99.90
9482;DHT22;4779;48.062;11.672;2023-04-28T15:17:18;13.50;99.90
9482;DHT22;4779;48.062;11.672;2023-04-28T15:19:45;13.40;99.90
9482;DHT22;4779;48.062;11.672;2023-04-28T15:22:12;13.30;99.90
9482;DHT22;4779;48.062;11.672;2023-04-28T15:24:41;13.30;99.90
9482;DHT22;4779;48.062;11.672;2023-04-28T15:27:08;13.20;99.90
9482;DHT22;4779;48.062;11.672;2023-04-28T15:29:35;13.10;99.90
9482;DHT22;4779;48.062;11.672;2023-04-28T15:32:03;13.00;99.90
9482;DHT22;4779;48.062;11.672;2023-04-28T15:34:31;13.00;99.90
9482;DHT22;4779;48.062;11.672;2023-04-28T15:36:58;12.90;99.90
9482;DHT22;4779;48.062;11.672;2023-04-28T15:39:25;12.90;99.90
9482;DHT22;4779;48.062;11.672;2023-04-28T15:41:54;12.90;99.90
9482;DHT22;4779;48.062;11.672;2023-04-28T15:44:21;12.80;99.90
9482;DHT22;4779;48.062;11.672;2023-04-28T15:46:48;12.80;99.90
9482;DHT22;4779;48.062;11.672;2023-04-28T15:49:17;12.80;99.90
9482;DHT22;4779;48.062;11.672;2023-04-28T15:51:43;12.80;99.90
9482;DHT22;4779;48.062;11.672;2023-04-28T15:54:11;12.90;99.90
9482;DHT22;4779;48.062;11.672;2023-04-28T15:56:38;12.80;99.90
9482;DHT22;4779;48.062;11.672;2023-04-28T15:59:06;12.80;99.90
9482;DHT22;4779;48.062;11.672;2023-04-28T16:01:39;12.90;99.90
9482;DHT22;4779;48.062;11.672;2023-04-28T16:04:06;12.90;99.90